createdAt,value
2018-05-07T00:01:44.494Z,10.03
2018-05-07T00:04:11.985Z,9.63
2018-05-07T00:06:39.492Z,9.53
2018-05-07T00:09:07.860Z,9.57
2018-05-07T00:11:35.414Z,10.10
2018-05-07T00:14:02.866Z,9.90
2018-05-07T00:16:30.446Z,8.93
2018-05-07T00:18:58.010Z,9.10
2018-05-07T00:21:25.526Z,9.80
2018-05-07T00:23:53.038Z,9.67
2018-05-07T00:26:20.612Z,9.10
2018-05-07T00:28:48.098Z,8.77
2018-05-07T00:31:16.374Z,9.50
2018-05-07T00:33:44.637Z,8.97
2018-05-07T00:36:12.206Z,8.97
2018-05-07T00:38:39.758Z,8.97
2018-05-07T00:41:07.328Z,8.70
2018-05-07T00:43:34.848Z,8.97
2018-05-07T00:46:02.371Z,8.40
2018-05-07T00:48:29.869Z,8.63
2018-05-07T00:50:57.388Z,8.87
2018-05-07T00:53:24.880Z,8.53
2018-05-07T00:55:53.238Z,8.63
2018-05-07T00:58:20.802Z,8.13
2018-05-07T01:00:48.372Z,8.07
2018-05-07T01:03:15.938Z,8.20
2018-05-07T01:05:43.428Z,8.23
2018-05-07T01:08:11.778Z,7.83
2018-05-07T01:10:39.344Z,7.90
2018-05-07T01:13:06.852Z,7.90
2018-05-07T01:15:34.348Z,7.87
2018-05-07T01:18:01.948Z,7.60
2018-05-07T01:20:29.452Z,8.23
2018-05-07T01:22:56.939Z,7.90
2018-05-07T01:25:24.542Z,7.57
2018-05-07T01:27:52.032Z,7.67
2018-05-07T01:30:20.298Z,7.23
2018-05-07T01:32:47.792Z,7.27
2018-05-07T01:35:15.294Z,7.50
2018-05-07T01:37:42.889Z,7.23
2018-05-07T01:40:11.151Z,7.33
2018-05-07T01:42:38.644Z,7.30
2018-05-07T01:45:06.183Z,6.80
2018-05-07T01:47:33.765Z,6.70
2018-05-07T01:50:01.248Z,6.60
2018-05-07T01:52:29.526Z,7.10
2018-05-07T01:54:57.784Z,6.50
2018-05-07T01:57:25.298Z,6.57
2018-05-07T01:59:52.808Z,6.67
2018-05-07T02:02:20.377Z,6.30
2018-05-07T02:04:47.869Z,6.77
2018-05-07T02:07:16.224Z,6.57
2018-05-07T02:09:43.793Z,6.20
2018-05-07T02:12:11.298Z,5.57
2018-05-07T02:14:39.643Z,5.97
2018-05-07T02:17:07.135Z,6.50
2018-05-07T02:19:35.485Z,5.70
2018-05-07T02:22:03.023Z,5.83
2018-05-07T02:24:30.513Z,6.00
2018-05-07T02:26:58.031Z,6.07
2018-05-07T02:29:25.559Z,5.20
2018-05-07T02:31:53.026Z,5.70
2018-05-07T02:34:20.521Z,5.70
2018-05-07T02:36:48.039Z,6.10
2018-05-07T02:39:15.607Z,5.30
2018-05-07T02:41:43.906Z,5.17
2018-05-07T02:44:12.157Z,5.17
2018-05-07T02:46:39.742Z,5.27
2018-05-07T02:49:07.232Z,5.17
2018-05-07T02:51:35.528Z,5.63
2018-05-07T02:54:03.044Z,5.17
2018-05-07T02:56:30.582Z,5.17
2018-05-07T02:58:58.082Z,5.13
2018-05-07T03:01:25.565Z,5.00
2018-05-07T03:03:53.907Z,5.13
2018-05-07T03:06:21.392Z,4.93
2018-05-07T03:08:48.958Z,4.87
2018-05-07T03:11:16.460Z,4.70
2018-05-07T03:13:43.963Z,5.03
2018-05-07T03:16:11.477Z,4.73
2018-05-07T03:18:39.829Z,4.73
2018-05-07T03:21:07.332Z,4.40
2018-05-07T03:23:34.864Z,4.33
2018-05-07T03:26:03.146Z,4.60
2018-05-07T03:28:30.710Z,4.67
2018-05-07T03:30:59.810Z,4.07
2018-05-07T03:33:27.320Z,4.23
2018-05-07T03:35:54.824Z,4.73
2018-05-07T03:38:22.398Z,4.40
2018-05-07T03:40:49.885Z,4.67
2018-05-07T03:43:17.387Z,4.63
2018-05-07T03:45:44.898Z,4.40
2018-05-07T03:48:12.468Z,3.90
2018-05-07T03:50:40.032Z,4.13
2018-05-07T03:53:07.526Z,4.53
2018-05-07T03:55:35.806Z,4.20
2018-05-07T03:58:04.055Z,3.90
2018-05-07T04:00:31.555Z,3.90
2018-05-07T04:02:59.811Z,4.30
2018-05-07T04:05:28.083Z,4.00
2018-05-07T04:07:55.654Z,4.10
2018-05-07T04:10:23.226Z,4.17
2018-05-07T04:12:50.724Z,3.97
2018-05-07T04:15:18.243Z,4.40
2018-05-07T04:17:57.554Z,3.70
2018-05-07T04:23:37.635Z,4.20
2018-05-07T04:26:05.275Z,4.23
2018-05-07T04:28:33.504Z,4.40
2018-05-07T04:31:01.855Z,4.27
2018-05-07T04:33:29.434Z,4.30
2018-05-07T04:35:56.917Z,4.10
2018-05-07T04:38:25.250Z,4.20
2018-05-07T04:40:52.848Z,4.17
2018-05-07T04:43:20.374Z,4.37
2018-05-07T04:45:48.698Z,4.50
2018-05-07T04:48:16.211Z,4.47
2018-05-07T04:50:43.714Z,4.53
2018-05-07T04:53:11.338Z,4.13
2018-05-07T04:55:38.856Z,3.97
2018-05-07T04:58:07.860Z,3.97
2018-05-07T05:00:36.142Z,4.23
2018-05-07T05:03:03.648Z,4.27
2018-05-07T05:05:31.164Z,4.23
2018-05-07T05:07:58.727Z,3.93
2018-05-07T05:10:26.233Z,5.23
2018-05-07T05:12:53.755Z,4.97
2018-05-07T05:15:21.322Z,4.67
2018-05-07T05:17:49.592Z,3.83
2018-05-07T05:20:17.175Z,3.93
2018-05-07T05:22:44.678Z,3.70
2018-05-07T05:25:12.203Z,4.30
2018-05-07T05:27:39.719Z,3.73
2018-05-07T05:30:07.217Z,4.20
2018-05-07T05:32:34.715Z,4.13
2018-05-07T05:35:03.085Z,4.13
2018-05-07T05:37:30.657Z,3.90
2018-05-07T05:39:58.174Z,3.80
2018-05-07T05:42:25.667Z,3.40
2018-05-07T05:44:53.165Z,3.87
2018-05-07T05:47:21.527Z,3.53
2018-05-07T05:49:49.091Z,7.93
2018-05-07T05:52:17.295Z,12.83
2018-05-07T05:54:45.553Z,14.47
2018-05-07T05:57:13.129Z,15.33
2018-05-07T05:59:40.733Z,15.17
2018-05-07T06:02:08.243Z,14.80
2018-05-07T06:04:35.739Z,14.87
2018-05-07T06:07:04.103Z,14.33
2018-05-07T06:09:31.605Z,13.93
2018-05-07T06:11:59.121Z,14.93
2018-05-07T06:14:26.788Z,14.27
2018-05-07T06:16:54.249Z,13.93
2018-05-07T06:19:21.825Z,13.50
2018-05-07T06:21:49.389Z,14.73
2018-05-07T06:24:16.960Z,15.63
2018-05-07T06:26:44.540Z,11.67
2018-05-07T06:29:12.037Z,11.47
2018-05-07T06:31:39.534Z,10.80
2018-05-07T06:34:07.126Z,11.00
2018-05-07T06:36:34.681Z,10.20
2018-05-07T06:39:02.271Z,10.83
2018-05-07T06:41:30.546Z,10.67
2018-05-07T06:43:58.043Z,9.73
2018-05-07T06:46:25.546Z,10.30
2018-05-07T06:48:53.058Z,10.17
2018-05-07T06:51:21.310Z,10.10
2018-05-07T06:53:48.802Z,9.80
2018-05-07T06:56:17.072Z,10.37
2018-05-07T06:58:45.363Z,10.60
2018-05-07T07:01:13.718Z,9.77
2018-05-07T07:03:41.244Z,5.80
2018-05-07T07:06:08.732Z,5.27
2018-05-07T07:08:36.454Z,4.00
2018-05-07T07:11:03.836Z,14.67
2018-05-07T07:13:31.318Z,11.73
2018-05-07T07:15:58.837Z,10.97
2018-05-07T07:18:27.203Z,11.20
2018-05-07T07:20:54.770Z,10.83
2018-05-07T07:23:22.273Z,9.80
2018-05-07T07:25:49.904Z,6.87
2018-05-07T07:28:17.442Z,6.20
2018-05-07T07:30:44.915Z,7.00
2018-05-07T07:33:12.413Z,4.80
2018-05-07T07:35:40.671Z,4.30
2018-05-07T07:38:08.275Z,3.60
2018-05-07T07:40:35.768Z,4.17
2018-05-07T07:43:03.365Z,4.63
2018-05-07T07:45:30.871Z,4.90
2018-05-07T07:47:58.401Z,4.87
2018-05-07T07:50:25.908Z,4.87
2018-05-07T07:52:53.416Z,4.50
2018-05-07T07:55:20.981Z,4.97
2018-05-07T07:57:48.559Z,5.00
2018-05-07T08:00:16.120Z,4.20
2018-05-07T08:02:44.376Z,4.73
2018-05-07T08:05:12.118Z,4.40
2018-05-07T08:07:40.400Z,4.57
2018-05-07T08:10:07.909Z,4.93
2018-05-07T08:12:35.486Z,4.97
2018-05-07T08:15:03.058Z,4.30
2018-05-07T08:17:30.592Z,4.30
2018-05-07T08:19:58.176Z,4.20
2018-05-07T08:22:25.743Z,3.90
2018-05-07T08:24:53.236Z,4.30
2018-05-07T08:27:21.598Z,4.60
2018-05-07T08:29:49.154Z,4.60
2018-05-07T08:32:16.729Z,4.43
2018-05-07T08:34:44.264Z,4.30
2018-05-07T08:37:11.749Z,3.87
2018-05-07T08:39:39.317Z,4.17
2018-05-07T08:42:06.878Z,4.27
2018-05-07T08:44:34.366Z,3.83
2018-05-07T08:47:02.727Z,4.27
2018-05-07T08:49:30.302Z,3.70
2018-05-07T08:51:57.879Z,4.10
2018-05-07T08:54:25.442Z,4.47
2018-05-07T08:56:53.729Z,4.00
2018-05-07T08:59:21.288Z,4.00
2018-05-07T09:01:48.837Z,3.87
2018-05-07T09:04:16.409Z,3.97
2018-05-07T09:06:43.912Z,3.87
2018-05-07T09:09:12.254Z,3.70
2018-05-07T09:11:39.741Z,3.80
2018-05-07T09:14:08.003Z,4.30
2018-05-07T09:16:35.571Z,4.37
2018-05-07T09:19:03.065Z,3.80
2018-05-07T09:21:31.324Z,4.00
2018-05-07T09:23:58.804Z,3.93
2018-05-07T09:26:27.069Z,4.40
2018-05-07T09:28:54.580Z,4.63
2018-05-07T09:31:22.198Z,4.97
2018-05-07T09:33:49.691Z,4.57
2018-05-07T09:36:18.086Z,3.43
2018-05-07T09:38:45.580Z,3.00
2018-05-07T09:41:13.178Z,3.47
2018-05-07T09:43:40.750Z,4.40
2018-05-07T09:46:08.249Z,4.00
2018-05-07T09:48:35.762Z,5.07
2018-05-07T09:51:03.334Z,4.30
2018-05-07T09:53:30.909Z,4.97
2018-05-07T09:55:58.477Z,4.43
2018-05-07T09:58:25.975Z,4.67
2018-05-07T10:00:53.490Z,4.77
2018-05-07T10:03:21.066Z,4.87
2018-05-07T10:05:48.624Z,3.57
2018-05-07T10:08:16.114Z,31.23
2018-05-07T10:10:44.474Z,3.50
2018-05-07T10:13:11.964Z,4.63
2018-05-07T10:15:40.242Z,4.10
2018-05-07T10:18:08.514Z,4.17
2018-05-07T10:20:36.064Z,4.63
2018-05-07T10:23:03.587Z,4.50
2018-05-07T10:25:31.091Z,4.40
2018-05-07T10:27:58.581Z,3.93
2018-05-07T10:30:26.942Z,3.80
2018-05-07T10:32:54.461Z,6.60
2018-05-07T10:35:22.015Z,4.33
2018-05-07T10:37:49.491Z,4.60
2018-05-07T10:40:17.116Z,4.20
2018-05-07T10:42:44.777Z,4.30
2018-05-07T10:45:12.219Z,4.90
2018-05-07T10:47:39.714Z,6.70
2018-05-07T10:50:07.223Z,4.43
2018-05-07T10:52:34.746Z,4.37
2018-05-07T10:55:02.244Z,4.73
2018-05-07T10:57:29.810Z,4.27
2018-05-07T10:59:57.308Z,5.03
2018-05-07T11:02:24.891Z,4.37
2018-05-07T11:04:52.456Z,4.70
2018-05-07T11:07:20.006Z,3.90
2018-05-07T11:09:48.302Z,4.10
2018-05-07T11:12:15.804Z,4.23
2018-05-07T11:14:44.195Z,4.20
2018-05-07T11:17:12.414Z,4.23
2018-05-07T11:19:39.914Z,3.93
2018-05-07T11:22:07.484Z,4.67
2018-05-07T11:24:35.754Z,4.60
2018-05-07T11:27:03.262Z,4.03
2018-05-07T11:29:30.771Z,3.63
2018-05-07T11:31:58.347Z,3.33
2018-05-07T11:34:25.864Z,4.10
2018-05-07T11:36:53.368Z,3.90
2018-05-07T11:39:20.871Z,3.70
2018-05-07T11:41:48.374Z,3.90
2018-05-07T11:44:16.589Z,3.40
2018-05-07T11:46:44.102Z,3.27
2018-05-07T11:49:11.796Z,3.33
2018-05-07T11:51:40.213Z,3.87
2018-05-07T11:54:08.522Z,4.40
2018-05-07T11:56:36.023Z,3.40
2018-05-07T11:59:03.605Z,3.17
2018-05-07T12:01:31.104Z,3.27
2018-05-07T12:03:59.372Z,2.90
2018-05-07T12:06:26.895Z,2.83
2018-05-07T12:08:54.389Z,2.90
2018-05-07T12:11:21.896Z,2.63
2018-05-07T12:13:49.414Z,2.70
2018-05-07T12:16:16.909Z,2.70
2018-05-07T12:18:45.264Z,3.23
2018-05-07T12:21:12.756Z,3.20
2018-05-07T12:23:41.031Z,3.43
2018-05-07T12:26:09.283Z,3.20
2018-05-07T12:28:36.775Z,3.03
2018-05-07T12:31:05.041Z,3.00
2018-05-07T12:33:32.547Z,2.70
2018-05-07T12:36:00.034Z,3.30
2018-05-07T12:38:27.641Z,3.10
2018-05-07T12:40:55.136Z,2.97
2018-05-07T12:43:22.639Z,2.87
2018-05-07T12:45:50.151Z,3.37
2018-05-07T12:48:18.409Z,4.37
2018-05-07T12:50:45.969Z,5.07
2018-05-07T12:53:14.228Z,5.57
2018-05-07T12:55:41.813Z,5.43
2018-05-07T12:58:09.391Z,5.97
2018-05-07T13:00:36.889Z,6.53
2018-05-07T13:03:04.436Z,6.33
2018-05-07T13:05:31.989Z,6.23
2018-05-07T13:07:59.549Z,6.60
2018-05-07T13:10:27.155Z,8.03
2018-05-07T13:12:55.583Z,9.50
2018-05-07T13:15:23.068Z,10.17
2018-05-07T13:17:50.582Z,10.53
2018-05-07T13:20:18.102Z,10.00
2018-05-07T13:22:45.594Z,9.57
2018-05-07T13:25:13.917Z,10.30
2018-05-07T13:27:41.518Z,12.23
2018-05-07T13:30:09.786Z,10.53
2018-05-07T13:32:37.358Z,10.00
2018-05-07T13:35:04.863Z,9.73
2018-05-07T13:37:32.371Z,10.70
2018-05-07T13:39:59.955Z,8.93
2018-05-07T13:42:27.562Z,8.87
2018-05-07T13:44:55.071Z,8.47
2018-05-07T13:47:22.657Z,10.40
2018-05-07T13:49:50.212Z,8.80
2018-05-07T13:52:17.722Z,7.80
2018-05-07T13:54:45.232Z,7.07
2018-05-07T13:57:12.819Z,6.87
2018-05-07T13:59:40.390Z,7.27
2018-05-07T14:02:07.969Z,6.90
2018-05-07T14:04:36.232Z,5.70
2018-05-07T14:07:03.733Z,9.83
2018-05-07T14:09:31.250Z,6.80
2018-05-07T14:11:58.748Z,8.07
2018-05-07T14:14:27.093Z,7.97
2018-05-07T14:16:55.294Z,7.90
2018-05-07T14:19:22.859Z,7.93
2018-05-07T14:21:50.431Z,7.90
2018-05-07T14:24:18.697Z,6.50
2018-05-07T14:26:46.217Z,7.23
2018-05-07T14:29:13.718Z,6.67
2018-05-07T14:31:41.205Z,6.67
2018-05-07T14:34:09.486Z,6.23
2018-05-07T14:36:37.850Z,6.17
2018-05-07T14:39:06.212Z,6.33
2018-05-07T14:41:33.702Z,6.17
2018-05-07T14:44:01.210Z,6.50
2018-05-07T14:46:28.732Z,5.30
2018-05-07T14:48:56.312Z,5.87
2018-05-07T14:51:23.797Z,5.03
2018-05-07T14:53:51.343Z,5.63
2018-05-07T14:56:18.845Z,5.40
2018-05-07T14:58:46.370Z,5.10
2018-05-07T15:01:13.930Z,5.13
2018-05-07T15:03:41.437Z,6.13
2018-05-07T15:06:08.949Z,4.70
2018-05-07T15:08:36.447Z,5.10
2018-05-07T15:11:03.977Z,4.57
2018-05-07T15:13:31.477Z,4.90
2018-05-07T15:15:59.745Z,4.63
2018-05-07T15:18:28.017Z,4.90
2018-05-07T15:20:55.577Z,4.47
2018-05-07T15:23:23.228Z,4.40
2018-05-07T15:25:50.689Z,4.10
2018-05-07T15:28:18.255Z,4.40
2018-05-07T15:30:45.748Z,3.77
2018-05-07T15:33:13.252Z,4.20
2018-05-07T15:35:40.884Z,3.80
2018-05-07T15:38:08.377Z,4.60
2018-05-07T15:40:35.868Z,3.70
2018-05-07T15:43:03.374Z,3.90
2018-05-07T15:45:31.634Z,3.43
2018-05-07T15:47:59.167Z,3.90
2018-05-07T15:50:26.657Z,4.00
2018-05-07T15:52:54.237Z,3.83
2018-05-07T15:55:21.766Z,3.33
2018-05-07T15:57:49.243Z,3.50
2018-05-07T16:00:16.826Z,3.83
2018-05-07T16:02:44.523Z,3.30
2018-05-07T16:05:11.972Z,3.50
2018-05-07T16:07:39.479Z,3.10
2018-05-07T16:10:06.980Z,3.30
2018-05-07T16:12:34.493Z,3.43
2018-05-07T16:15:02.856Z,3.77
2018-05-07T16:17:31.013Z,3.17
2018-05-07T16:19:58.509Z,3.30
2018-05-07T16:22:26.768Z,3.13
2018-05-07T16:24:55.062Z,3.37
2018-05-07T16:27:23.321Z,3.23
2018-05-07T16:29:50.942Z,2.90
2018-05-07T16:32:18.464Z,2.80
2018-05-07T16:34:45.951Z,2.63
2018-05-07T16:37:14.306Z,2.83
2018-05-07T16:39:41.803Z,2.70
2018-05-07T16:42:10.160Z,2.70
2018-05-07T16:44:37.654Z,2.73
2018-05-07T16:47:06.008Z,2.70
2018-05-07T16:49:33.570Z,2.70
2018-05-07T16:52:01.074Z,2.90
2018-05-07T16:54:29.416Z,2.60
2018-05-07T16:56:56.914Z,2.30
2018-05-07T16:59:25.406Z,2.57
2018-05-07T17:01:53.545Z,2.60
2018-05-07T17:04:21.038Z,2.83
2018-05-07T17:06:49.341Z,2.90
2018-05-07T17:09:16.836Z,2.43
2018-05-07T17:11:44.333Z,2.80
2018-05-07T17:14:11.928Z,2.53
2018-05-07T17:16:39.397Z,2.27
2018-05-07T17:19:06.932Z,2.60
2018-05-07T17:21:34.482Z,2.03
2018-05-07T17:24:02.001Z,2.10
2018-05-07T17:26:29.617Z,3.17
2018-05-07T17:28:57.198Z,3.47
2018-05-07T17:31:24.695Z,2.80
2018-05-07T17:33:52.349Z,2.90
2018-05-07T17:36:19.727Z,2.73
2018-05-07T17:38:47.311Z,2.83
2018-05-07T17:41:14.821Z,3.07
2018-05-07T17:43:42.351Z,3.17
2018-05-07T17:46:18.530Z,3.20
2018-05-07T17:48:55.982Z,3.03
2018-05-07T17:51:23.490Z,2.60
2018-05-07T17:53:51.056Z,2.67
2018-05-07T17:56:18.576Z,3.23
2018-05-07T17:58:46.078Z,2.90
2018-05-07T18:01:13.647Z,3.07
2018-05-07T18:03:41.908Z,3.37
2018-05-07T18:06:09.414Z,4.20
2018-05-07T18:08:36.960Z,2.83
2018-05-07T18:11:04.462Z,2.70
2018-05-07T18:13:32.831Z,2.73
2018-05-07T18:16:01.187Z,3.10
2018-05-07T18:18:28.669Z,3.23
2018-05-07T18:20:56.201Z,2.80
2018-05-07T18:23:23.787Z,2.70
2018-05-07T18:25:51.367Z,2.77
2018-05-07T18:28:18.863Z,3.37
2018-05-07T18:30:46.389Z,3.20
2018-05-07T18:33:13.910Z,2.97
2018-05-07T18:35:41.414Z,2.80
2018-05-07T18:38:08.928Z,3.33
2018-05-07T18:40:36.443Z,3.20
2018-05-07T18:43:04.009Z,3.27
2018-05-07T18:45:31.563Z,3.20
2018-05-07T18:47:59.139Z,3.23
2018-05-07T18:50:26.637Z,3.27
2018-05-07T18:52:54.991Z,3.00
2018-05-07T18:55:23.995Z,3.10
2018-05-07T18:57:51.503Z,2.67
2018-05-07T19:00:19.033Z,2.37
2018-05-07T19:02:47.409Z,19.27
2018-05-07T19:05:14.936Z,6.37
2018-05-07T19:07:42.441Z,4.63
2018-05-07T19:10:09.955Z,3.30
2018-05-07T19:12:37.453Z,3.70
2018-05-07T19:15:04.947Z,4.40
2018-05-07T19:17:33.213Z,3.77
2018-05-07T19:20:01.496Z,3.73
2018-05-07T19:22:29.889Z,3.63
2018-05-07T19:24:58.274Z,3.67
2018-05-07T19:27:26.563Z,3.70
2018-05-07T19:29:55.028Z,3.80
2018-05-07T19:32:22.495Z,3.80
2018-05-07T19:34:51.557Z,3.60
2018-05-07T19:37:19.056Z,3.67
2018-05-07T19:39:47.342Z,3.50
2018-05-07T19:42:15.626Z,3.40
2018-05-07T19:44:43.125Z,3.20
2018-05-07T19:47:10.643Z,3.60
2018-05-07T19:49:38.144Z,3.67
2018-05-07T19:52:05.674Z,3.03
2018-05-07T19:54:33.178Z,3.57
2018-05-07T19:57:00.689Z,3.60
2018-05-07T19:59:28.293Z,3.47
2018-05-07T20:01:56.655Z,3.37
2018-05-07T20:04:24.232Z,3.70
2018-05-07T20:06:51.724Z,3.30
2018-05-07T20:09:19.273Z,3.87
2018-05-07T20:11:47.572Z,3.67
2018-05-07T20:14:15.068Z,3.30
2018-05-07T20:16:42.657Z,3.47
2018-05-07T20:19:10.237Z,3.43
2018-05-07T20:21:37.753Z,3.27
2018-05-07T20:24:05.363Z,3.40
2018-05-07T20:26:33.616Z,3.30
2018-05-07T20:29:01.213Z,4.23
2018-05-07T20:31:28.698Z,3.33
2018-05-07T20:33:56.945Z,3.40
2018-05-07T20:36:24.453Z,2.90
2018-05-07T20:38:51.950Z,3.20
2018-05-07T20:41:19.451Z,3.43
2018-05-07T20:43:46.985Z,3.20
2018-05-07T20:46:14.504Z,3.07
2018-05-07T20:48:42.779Z,3.50
2018-05-07T20:51:11.049Z,3.07
2018-05-07T20:53:38.664Z,2.97
2018-05-07T20:56:06.169Z,3.10
2018-05-07T20:58:33.661Z,3.37
2018-05-07T21:01:01.950Z,3.40
2018-05-07T21:03:30.310Z,3.50
2018-05-07T21:05:57.814Z,2.77
2018-05-07T21:08:25.303Z,3.07
2018-05-07T21:10:52.889Z,2.80
2018-05-07T21:13:20.456Z,3.53
2018-05-07T21:15:47.949Z,3.03
2018-05-07T21:18:16.302Z,2.90
2018-05-07T21:20:43.879Z,2.60
2018-05-07T21:23:11.375Z,3.20
2018-05-07T21:25:38.886Z,2.70
2018-05-07T21:28:06.478Z,2.83
2018-05-07T21:30:33.995Z,3.17
2018-05-07T21:33:01.503Z,2.70
2018-05-07T21:35:28.998Z,3.00
2018-05-07T21:37:57.274Z,3.03
2018-05-07T21:40:25.541Z,2.93
2018-05-07T21:42:53.067Z,2.87
2018-05-07T21:45:20.556Z,2.63
2018-05-07T21:47:48.129Z,2.40
2018-05-07T21:50:15.623Z,2.80
2018-05-07T21:52:43.118Z,2.87
2018-05-07T21:55:10.714Z,2.50
2018-05-07T21:57:38.296Z,2.77
2018-05-07T22:00:05.796Z,2.50
2018-05-07T22:02:33.294Z,2.90
2018-05-07T22:05:00.896Z,2.60
2018-05-07T22:07:29.153Z,3.00
2018-05-07T22:09:56.736Z,3.00
2018-05-07T22:12:24.341Z,2.50
2018-05-07T22:14:52.679Z,2.63
2018-05-07T22:17:20.172Z,2.57
2018-05-07T22:19:48.425Z,2.70
2018-05-07T22:22:15.993Z,2.63
2018-05-07T22:24:43.505Z,3.00
2018-05-07T22:27:11.126Z,2.77
2018-05-07T22:29:38.635Z,2.50
2018-05-07T22:32:06.191Z,2.77
2018-05-07T22:34:33.615Z,2.70
2018-05-07T22:37:01.175Z,2.60
2018-05-07T22:39:28.752Z,2.63
2018-05-07T22:41:56.236Z,2.67
2018-05-07T22:44:24.492Z,2.73
2018-05-07T22:46:52.006Z,2.60
2018-05-07T22:49:19.488Z,2.60
2018-05-07T22:51:46.994Z,2.63
2018-05-07T22:54:14.481Z,2.27
2018-05-07T22:56:41.972Z,2.40
2018-05-07T22:59:09.474Z,2.70
2018-05-07T23:01:37.111Z,2.30
2018-05-07T23:04:04.612Z,2.53
2018-05-07T23:06:32.168Z,2.50
2018-05-07T23:08:59.747Z,2.40
2018-05-07T23:11:27.244Z,2.33
2018-05-07T23:13:54.760Z,2.57
2018-05-07T23:16:22.330Z,2.33
2018-05-07T23:18:49.826Z,2.40
2018-05-07T23:21:18.186Z,2.27
2018-05-07T23:23:45.668Z,2.57
2018-05-07T23:26:13.933Z,2.27
2018-05-07T23:28:41.448Z,2.40
2018-05-07T23:31:08.950Z,2.20
2018-05-07T23:33:36.470Z,2.30
2018-05-07T23:36:03.981Z,2.23
2018-05-07T23:38:31.498Z,2.37
2018-05-07T23:40:59.013Z,2.10
2018-05-07T23:43:26.576Z,2.50
2018-05-07T23:45:54.060Z,2.20
2018-05-07T23:48:22.320Z,2.40
2018-05-07T23:50:49.894Z,2.50
2018-05-07T23:53:17.456Z,2.30
2018-05-07T23:55:44.942Z,2.43
2018-05-07T23:58:13.208Z,2.50
